sensor_id;sensor_type;location;lat;lon;timestamp;P1;durP1;ratioP1;P2;durP2;ratioP2
34832;SDS011;55941;50.800;4.342;2023-01-28T00:00:54;15.88;;;12.02;;
34832;SDS011;55941;50.800;4.342;2023-01-28T00:03:20;16.42;;;12.20;;
34832;SDS011;55941;50.800;4.342;2023-01-28T00:05:45;13.60;;;11.73;;
34832;SDS011;55941;50.800;4.342;2023-01-28T00:08:11;13.80;;;11.35;;
34832;SDS011;55941;50.800;4.342;2023-01-28T00:10:41;13.55;;;11.73;;
34832;SDS011;55941;50.800;4.342;2023-01-28T00:13:10;13.85;;;12.10;;
34832;SDS011;55941;50.800;4.342;2023-01-28T00:15:43;14.80;;;11.73;;
34832;SDS011;55941;50.800;4.342;2023-01-28T00:18:12;14.38;;;12.23;;
34832;SDS011;55941;50.800;4.342;2023-01-28T00:20:41;16.58;;;12.65;;
34832;SDS011;55941;50.800;4.342;2023-01-28T00:23:09;13.70;;;11.40;;
34832;SDS011;55941;50.800;4.342;2023-01-28T00:25:38;13.98;;;11.98;;
34832;SDS011;55941;50.800;4.342;2023-01-28T00:28:04;12.77;;;11.30;;
34832;SDS011;55941;50.800;4.342;2023-01-28T00:30:33;13.02;;;11.27;;
34832;SDS011;55941;50.800;4.342;2023-01-28T00:33:02;21.88;;;12.95;;
34832;SDS011;55941;50.800;4.342;2023-01-28T00:35:28;13.77;;;12.30;;
34832;SDS011;55941;50.800;4.342;2023-01-28T00:37:54;13.30;;;11.55;;
34832;SDS011;55941;50.800;4.342;2023-01-28T00:40:22;13.45;;;12.02;;
34832;SDS011;55941;50.800;4.342;2023-01-28T00:42:49;14.40;;;12.45;;
34832;SDS011;55941;50.800;4.342;2023-01-28T00:45:15;14.35;;;12.63;;
34832;SDS011;55941;50.800;4.342;2023-01-28T00:47:41;14.95;;;12.52;;
34832;SDS011;55941;50.800;4.342;2023-01-28T00:50:09;14.55;;;13.05;;
34832;SDS011;55941;50.800;4.342;2023-01-28T00:52:35;14.02;;;11.93;;
34832;SDS011;55941;50.800;4.342;2023-01-28T00:55:03;13.68;;;12.18;;
34832;SDS011;55941;50.800;4.342;2023-01-28T00:57:30;16.42;;;12.50;;
34832;SDS011;55941;50.800;4.342;2023-01-28T00:59:58;13.45;;;12.00;;
34832;SDS011;55941;50.800;4.342;2023-01-28T01:02:24;13.45;;;11.90;;
34832;SDS011;55941;50.800;4.342;2023-01-28T01:04:51;12.77;;;11.43;;
34832;SDS011;55941;50.800;4.342;2023-01-28T01:10:13;16.23;;;12.65;;
34832;SDS011;55941;50.800;4.342;2023-01-28T01:12:40;17.25;;;11.98;;
34832;SDS011;55941;50.800;4.342;2023-01-28T01:17:36;14.07;;;11.82;;
34832;SDS011;55941;50.800;4.342;2023-01-28T01:20:05;15.45;;;11.35;;
34832;SDS011;55941;50.800;4.342;2023-01-28T01:23:04;14.95;;;11.98;;
34832;SDS011;55941;50.800;4.342;2023-01-28T01:25:29;13.05;;;11.02;;
34832;SDS011;55941;50.800;4.342;2023-01-28T01:27:56;12.32;;;10.98;;
34832;SDS011;55941;50.800;4.342;2023-01-28T01:30:28;13.75;;;11.07;;
34832;SDS011;55941;50.800;4.342;2023-01-28T01:32:56;15.75;;;11.00;;
34832;SDS011;55941;50.800;4.342;2023-01-28T01:37:53;11.55;;;10.10;;
34832;SDS011;55941;50.800;4.342;2023-01-28T01:40:20;11.10;;;9.90;;
34832;SDS011;55941;50.800;4.342;2023-01-28T01:42:49;13.23;;;10.30;;
34832;SDS011;55941;50.800;4.342;2023-01-28T01:45:14;12.82;;;9.80;;
34832;SDS011;55941;50.800;4.342;2023-01-28T01:47:50;12.75;;;10.10;;
34832;SDS011;55941;50.800;4.342;2023-01-28T01:55:57;13.93;;;11.35;;
34832;SDS011;55941;50.800;4.342;2023-01-28T01:58:27;15.55;;;11.50;;
34832;SDS011;55941;50.800;4.342;2023-01-28T02:01:03;15.60;;;11.40;;
34832;SDS011;55941;50.800;4.342;2023-01-28T02:03:34;13.40;;;11.50;;
34832;SDS011;55941;50.800;4.342;2023-01-28T02:06:11;14.52;;;11.93;;
34832;SDS011;55941;50.800;4.342;2023-01-28T02:08:37;17.63;;;12.05;;
34832;SDS011;55941;50.800;4.342;2023-01-28T02:11:05;14.63;;;12.32;;
34832;SDS011;55941;50.800;4.342;2023-01-28T02:13:43;16.27;;;13.63;;
34832;SDS011;55941;50.800;4.342;2023-01-28T02:16:15;15.57;;;12.90;;
34832;SDS011;55941;50.800;4.342;2023-01-28T02:18:45;16.75;;;13.13;;
34832;SDS011;55941;50.800;4.342;2023-01-28T02:23:54;15.98;;;13.70;;
34832;SDS011;55941;50.800;4.342;2023-01-28T02:29:13;17.13;;;13.90;;
34832;SDS011;55941;50.800;4.342;2023-01-28T02:31:43;16.67;;;14.02;;
34832;SDS011;55941;50.800;4.342;2023-01-28T02:34:35;15.15;;;13.55;;
34832;SDS011;55941;50.800;4.342;2023-01-28T02:39:48;16.92;;;14.60;;
34832;SDS011;55941;50.800;4.342;2023-01-28T02:42:21;16.35;;;14.13;;
34832;SDS011;55941;50.800;4.342;2023-01-28T02:44:53;16.70;;;14.10;;
34832;SDS011;55941;50.800;4.342;2023-01-28T02:47:21;16.10;;;14.40;;
34832;SDS011;55941;50.800;4.342;2023-01-28T02:50:16;20.40;;;14.65;;
34832;SDS011;55941;50.800;4.342;2023-01-28T03:01:53;16.00;;;14.00;;
34832;SDS011;55941;50.800;4.342;2023-01-28T03:04:41;16.88;;;14.80;;
34832;SDS011;55941;50.800;4.342;2023-01-28T03:07:11;18.33;;;14.55;;
34832;SDS011;55941;50.800;4.342;2023-01-28T03:09:44;17.80;;;15.05;;
34832;SDS011;55941;50.800;4.342;2023-01-28T03:12:13;18.10;;;14.00;;
34832;SDS011;55941;50.800;4.342;2023-01-28T03:15:05;18.23;;;13.05;;
34832;SDS011;55941;50.800;4.342;2023-01-28T03:18:00;17.92;;;14.32;;
34832;SDS011;55941;50.800;4.342;2023-01-28T03:26:42;18.02;;;14.65;;
34832;SDS011;55941;50.800;4.342;2023-01-28T03:29:37;19.50;;;14.60;;
34832;SDS011;55941;50.800;4.342;2023-01-28T03:32:25;18.15;;;15.18;;
34832;SDS011;55941;50.800;4.342;2023-01-28T03:35:12;18.00;;;14.65;;
34832;SDS011;55941;50.800;4.342;2023-01-28T03:41:18;20.83;;;15.27;;
34832;SDS011;55941;50.800;4.342;2023-01-28T03:43:37;19.60;;;15.13;;
34832;SDS011;55941;50.800;4.342;2023-01-28T03:46:09;19.50;;;15.73;;
34832;SDS011;55941;50.800;4.342;2023-01-28T03:51:01;20.25;;;15.30;;
34832;SDS011;55941;50.800;4.342;2023-01-28T03:53:30;19.55;;;15.35;;
34832;SDS011;55941;50.800;4.342;2023-01-28T03:58:27;18.65;;;14.68;;
34832;SDS011;55941;50.800;4.342;2023-01-28T04:01:20;23.52;;;15.07;;
34832;SDS011;55941;50.800;4.342;2023-01-28T04:03:46;18.38;;;14.30;;
34832;SDS011;55941;50.800;4.342;2023-01-28T04:06:14;18.10;;;14.45;;
34832;SDS011;55941;50.800;4.342;2023-01-28T04:08:40;21.80;;;14.93;;
34832;SDS011;55941;50.800;4.342;2023-01-28T04:11:33;20.83;;;14.90;;
34832;SDS011;55941;50.800;4.342;2023-01-28T04:14:03;19.77;;;15.18;;
34832;SDS011;55941;50.800;4.342;2023-01-28T04:16:29;17.77;;;14.23;;
34832;SDS011;55941;50.800;4.342;2023-01-28T04:19:00;17.48;;;13.77;;
34832;SDS011;55941;50.800;4.342;2023-01-28T04:21:26;19.20;;;15.27;;
34832;SDS011;55941;50.800;4.342;2023-01-28T04:23:55;20.15;;;13.68;;
34832;SDS011;55941;50.800;4.342;2023-01-28T04:28:52;17.88;;;13.85;;
34832;SDS011;55941;50.800;4.342;2023-01-28T04:31:19;27.35;;;14.40;;
34832;SDS011;55941;50.800;4.342;2023-01-28T04:33:46;20.05;;;14.32;;
34832;SDS011;55941;50.800;4.342;2023-01-28T04:36:12;17.95;;;13.70;;
34832;SDS011;55941;50.800;4.342;2023-01-28T04:38:44;18.27;;;13.95;;
34832;SDS011;55941;50.800;4.342;2023-01-28T04:41:10;18.55;;;13.60;;
34832;SDS011;55941;50.800;4.342;2023-01-28T04:46:05;18.63;;;13.38;;
34832;SDS011;55941;50.800;4.342;2023-01-28T04:48:31;16.55;;;13.50;;
34832;SDS011;55941;50.800;4.342;2023-01-28T04:50:59;16.00;;;12.55;;
34832;SDS011;55941;50.800;4.342;2023-01-28T04:53:25;15.80;;;12.18;;
34832;SDS011;55941;50.800;4.342;2023-01-28T04:55:54;16.15;;;12.35;;
34832;SDS011;55941;50.800;4.342;2023-01-28T04:58:20;16.58;;;13.13;;
34832;SDS011;55941;50.800;4.342;2023-01-28T05:00:51;16.23;;;13.07;;
34832;SDS011;55941;50.800;4.342;2023-01-28T05:03:21;17.73;;;13.32;;
34832;SDS011;55941;50.800;4.342;2023-01-28T05:05:50;18.70;;;14.35;;
34832;SDS011;55941;50.800;4.342;2023-01-28T05:08:17;20.13;;;15.00;;
34832;SDS011;55941;50.800;4.342;2023-01-28T05:10:43;17.63;;;14.48;;
34832;SDS011;55941;50.800;4.342;2023-01-28T05:13:09;19.20;;;15.02;;
34832;SDS011;55941;50.800;4.342;2023-01-28T05:15:35;20.00;;;15.38;;
34832;SDS011;55941;50.800;4.342;2023-01-28T05:18:04;19.00;;;14.93;;
34832;SDS011;55941;50.800;4.342;2023-01-28T05:20:31;20.63;;;15.27;;
34832;SDS011;55941;50.800;4.342;2023-01-28T05:23:00;19.77;;;16.48;;
34832;SDS011;55941;50.800;4.342;2023-01-28T05:25:26;20.85;;;16.98;;
34832;SDS011;55941;50.800;4.342;2023-01-28T05:27:54;21.30;;;16.08;;
34832;SDS011;55941;50.800;4.342;2023-01-28T05:30:20;21.63;;;16.02;;
34832;SDS011;55941;50.800;4.342;2023-01-28T05:32:48;24.52;;;16.20;;
34832;SDS011;55941;50.800;4.342;2023-01-28T05:35:19;22.23;;;16.20;;
34832;SDS011;55941;50.800;4.342;2023-01-28T05:37:45;18.92;;;15.32;;
34832;SDS011;55941;50.800;4.342;2023-01-28T05:40:11;23.13;;;16.08;;
34832;SDS011;55941;50.800;4.342;2023-01-28T05:42:38;22.40;;;15.50;;
34832;SDS011;55941;50.800;4.342;2023-01-28T05:45:05;18.67;;;15.15;;
34832;SDS011;55941;50.800;4.342;2023-01-28T05:47:32;21.05;;;14.77;;
34832;SDS011;55941;50.800;4.342;2023-01-28T05:50:00;20.95;;;15.68;;
34832;SDS011;55941;50.800;4.342;2023-01-28T05:52:26;19.10;;;14.85;;
34832;SDS011;55941;50.800;4.342;2023-01-28T05:54:55;18.05;;;14.88;;
34832;SDS011;55941;50.800;4.342;2023-01-28T05:57:23;17.73;;;14.73;;
34832;SDS011;55941;50.800;4.342;2023-01-28T05:59:49;18.38;;;14.68;;
34832;SDS011;55941;50.800;4.342;2023-01-28T06:02:15;16.60;;;13.48;;
34832;SDS011;55941;50.800;4.342;2023-01-28T06:04:41;20.05;;;13.52;;
34832;SDS011;55941;50.800;4.342;2023-01-28T06:07:07;17.65;;;14.32;;
34832;SDS011;55941;50.800;4.342;2023-01-28T06:09:33;15.68;;;13.32;;
34832;SDS011;55941;50.800;4.342;2023-01-28T06:11:59;16.83;;;13.68;;
34832;SDS011;55941;50.800;4.342;2023-01-28T06:14:28;18.48;;;14.10;;
34832;SDS011;55941;50.800;4.342;2023-01-28T06:16:54;18.60;;;14.05;;
34832;SDS011;55941;50.800;4.342;2023-01-28T06:19:21;19.42;;;14.75;;
34832;SDS011;55941;50.800;4.342;2023-01-28T06:21:50;20.67;;;15.82;;
34832;SDS011;55941;50.800;4.342;2023-01-28T06:24:16;18.42;;;15.00;;
34832;SDS011;55941;50.800;4.342;2023-01-28T06:26:42;17.75;;;15.15;;
34832;SDS011;55941;50.800;4.342;2023-01-28T06:29:09;17.98;;;14.77;;
34832;SDS011;55941;50.800;4.342;2023-01-28T06:31:35;18.13;;;15.18;;
34832;SDS011;55941;50.800;4.342;2023-01-28T06:34:01;18.10;;;14.48;;
34832;SDS011;55941;50.800;4.342;2023-01-28T06:36:26;18.52;;;14.65;;
34832;SDS011;55941;50.800;4.342;2023-01-28T06:38:58;21.35;;;15.23;;
34832;SDS011;55941;50.800;4.342;2023-01-28T06:43:57;18.35;;;14.68;;
34832;SDS011;55941;50.800;4.342;2023-01-28T06:46:23;17.13;;;13.77;;
34832;SDS011;55941;50.800;4.342;2023-01-28T06:48:49;17.80;;;14.52;;
34832;SDS011;55941;50.800;4.342;2023-01-28T06:51:15;20.35;;;14.82;;
34832;SDS011;55941;50.800;4.342;2023-01-28T06:53:41;18.45;;;14.90;;
34832;SDS011;55941;50.800;4.342;2023-01-28T06:56:07;18.42;;;15.48;;
34832;SDS011;55941;50.800;4.342;2023-01-28T06:58:33;18.08;;;14.82;;
34832;SDS011;55941;50.800;4.342;2023-01-28T07:00:59;17.65;;;14.75;;
34832;SDS011;55941;50.800;4.342;2023-01-28T07:03:25;20.75;;;14.55;;
34832;SDS011;55941;50.800;4.342;2023-01-28T07:05:51;17.15;;;14.23;;
34832;SDS011;55941;50.800;4.342;2023-01-28T07:08:17;17.33;;;14.73;;
34832;SDS011;55941;50.800;4.342;2023-01-28T07:10:43;16.90;;;13.38;;
34832;SDS011;55941;50.800;4.342;2023-01-28T07:13:09;16.88;;;14.43;;
34832;SDS011;55941;50.800;4.342;2023-01-28T07:15:36;15.75;;;13.23;;
34832;SDS011;55941;50.800;4.342;2023-01-28T07:18:02;17.25;;;13.95;;
34832;SDS011;55941;50.800;4.342;2023-01-28T07:20:28;19.27;;;15.27;;
34832;SDS011;55941;50.800;4.342;2023-01-28T07:22:54;27.13;;;14.88;;
34832;SDS011;55941;50.800;4.342;2023-01-28T07:25:20;19.10;;;14.95;;
34832;SDS011;55941;50.800;4.342;2023-01-28T07:27:50;19.95;;;14.00;;
34832;SDS011;55941;50.800;4.342;2023-01-28T07:30:17;25.60;;;13.57;;
34832;SDS011;55941;50.800;4.342;2023-01-28T07:32:44;17.70;;;14.15;;
34832;SDS011;55941;50.800;4.342;2023-01-28T07:37:41;17.40;;;13.52;;
34832;SDS011;55941;50.800;4.342;2023-01-28T07:40:07;18.35;;;12.73;;
34832;SDS011;55941;50.800;4.342;2023-01-28T07:42:33;16.80;;;13.25;;
34832;SDS011;55941;50.800;4.342;2023-01-28T07:44:59;17.20;;;12.88;;
34832;SDS011;55941;50.800;4.342;2023-01-28T07:47:25;18.13;;;13.85;;
34832;SDS011;55941;50.800;4.342;2023-01-28T07:49:51;19.85;;;13.80;;
34832;SDS011;55941;50.800;4.342;2023-01-28T07:52:16;17.05;;;13.50;;
34832;SDS011;55941;50.800;4.342;2023-01-28T07:54:42;16.17;;;13.73;;
34832;SDS011;55941;50.800;4.342;2023-01-28T07:57:08;17.80;;;14.48;;
34832;SDS011;55941;50.800;4.342;2023-01-28T07:59:34;18.15;;;14.13;;
34832;SDS011;55941;50.800;4.342;2023-01-28T08:02:00;17.13;;;13.68;;
34832;SDS011;55941;50.800;4.342;2023-01-28T08:04:26;19.60;;;13.65;;
34832;SDS011;55941;50.800;4.342;2023-01-28T08:06:52;19.15;;;15.20;;
34832;SDS011;55941;50.800;4.342;2023-01-28T08:09:18;17.80;;;14.88;;
34832;SDS011;55941;50.800;4.342;2023-01-28T08:11:43;19.30;;;14.35;;
34832;SDS011;55941;50.800;4.342;2023-01-28T08:14:09;17.85;;;14.00;;
34832;SDS011;55941;50.800;4.342;2023-01-28T08:16:36;16.70;;;14.25;;
34832;SDS011;55941;50.800;4.342;2023-01-28T08:19:02;22.42;;;14.18;;
34832;SDS011;55941;50.800;4.342;2023-01-28T08:21:27;16.77;;;13.80;;
34832;SDS011;55941;50.800;4.342;2023-01-28T08:23:53;27.90;;;14.07;;
34832;SDS011;55941;50.800;4.342;2023-01-28T08:26:20;19.45;;;13.68;;
34832;SDS011;55941;50.800;4.342;2023-01-28T08:28:46;16.95;;;14.18;;
34832;SDS011;55941;50.800;4.342;2023-01-28T08:31:12;18.35;;;13.68;;
34832;SDS011;55941;50.800;4.342;2023-01-28T08:33:38;20.35;;;13.75;;
34832;SDS011;55941;50.800;4.342;2023-01-28T08:36:04;16.83;;;13.40;;
34832;SDS011;55941;50.800;4.342;2023-01-28T08:38:31;19.02;;;13.48;;
34832;SDS011;55941;50.800;4.342;2023-01-28T08:40:57;16.42;;;13.07;;
34832;SDS011;55941;50.800;4.342;2023-01-28T08:43:24;17.40;;;13.20;;
34832;SDS011;55941;50.800;4.342;2023-01-28T08:45:50;25.83;;;13.70;;
34832;SDS011;55941;50.800;4.342;2023-01-28T08:48:16;19.85;;;13.23;;
34832;SDS011;55941;50.800;4.342;2023-01-28T08:50:43;25.17;;;13.55;;
34832;SDS011;55941;50.800;4.342;2023-01-28T08:53:13;21.27;;;13.43;;
34832;SDS011;55941;50.800;4.342;2023-01-28T08:55:40;19.42;;;13.52;;
34832;SDS011;55941;50.800;4.342;2023-01-28T08:58:08;16.77;;;13.88;;
34832;SDS011;55941;50.800;4.342;2023-01-28T09:00:36;17.45;;;13.77;;
34832;SDS011;55941;50.800;4.342;2023-01-28T09:03:03;20.02;;;13.93;;
34832;SDS011;55941;50.800;4.342;2023-01-28T09:05:30;23.02;;;13.80;;
34832;SDS011;55941;50.800;4.342;2023-01-28T09:08:08;16.33;;;13.35;;
34832;SDS011;55941;50.800;4.342;2023-01-28T09:10:36;20.15;;;14.80;;
34832;SDS011;55941;50.800;4.342;2023-01-28T09:13:11;20.75;;;15.10;;
34832;SDS011;55941;50.800;4.342;2023-01-28T09:15:39;18.80;;;15.05;;
34832;SDS011;55941;50.800;4.342;2023-01-28T09:18:05;21.02;;;15.90;;
34832;SDS011;55941;50.800;4.342;2023-01-28T09:20:31;19.75;;;15.88;;
34832;SDS011;55941;50.800;4.342;2023-01-28T09:22:58;19.27;;;15.35;;
34832;SDS011;55941;50.800;4.342;2023-01-28T09:25:25;23.58;;;15.35;;
34832;SDS011;55941;50.800;4.342;2023-01-28T09:27:51;20.70;;;15.85;;
34832;SDS011;55941;50.800;4.342;2023-01-28T09:30:17;19.83;;;15.43;;
34832;SDS011;55941;50.800;4.342;2023-01-28T09:32:43;22.15;;;15.98;;
34832;SDS011;55941;50.800;4.342;2023-01-28T09:35:09;20.85;;;15.68;;
34832;SDS011;55941;50.800;4.342;2023-01-28T09:37:35;20.40;;;16.27;;
34832;SDS011;55941;50.800;4.342;2023-01-28T09:40:02;31.80;;;15.95;;
34832;SDS011;55941;50.800;4.342;2023-01-28T09:42:36;21.17;;;16.40;;
34832;SDS011;55941;50.800;4.342;2023-01-28T09:45:32;26.05;;;16.25;;
34832;SDS011;55941;50.800;4.342;2023-01-28T09:48:09;22.23;;;16.93;;
34832;SDS011;55941;50.800;4.342;2023-01-28T09:50:42;24.17;;;17.35;;
34832;SDS011;55941;50.800;4.342;2023-01-28T09:53:12;21.85;;;16.65;;
34832;SDS011;55941;50.800;4.342;2023-01-28T09:55:43;26.15;;;16.63;;
34832;SDS011;55941;50.800;4.342;2023-01-28T09:58:13;22.05;;;16.17;;
34832;SDS011;55941;50.800;4.342;2023-01-28T10:07:03;24.83;;;17.05;;
34832;SDS011;55941;50.800;4.342;2023-01-28T10:12:54;25.02;;;17.60;;
34832;SDS011;55941;50.800;4.342;2023-01-28T10:18:08;22.48;;;17.08;;
34832;SDS011;55941;50.800;4.342;2023-01-28T10:20:45;27.23;;;19.05;;
34832;SDS011;55941;50.800;4.342;2023-01-28T10:23:19;27.45;;;19.05;;
34832;SDS011;55941;50.800;4.342;2023-01-28T10:25:52;23.60;;;18.70;;
34832;SDS011;55941;50.800;4.342;2023-01-28T10:28:28;23.25;;;18.30;;
34832;SDS011;55941;50.800;4.342;2023-01-28T10:30:55;27.40;;;18.10;;
34832;SDS011;55941;50.800;4.342;2023-01-28T10:33:22;27.48;;;18.95;;
34832;SDS011;55941;50.800;4.342;2023-01-28T10:35:53;21.98;;;17.63;;
34832;SDS011;55941;50.800;4.342;2023-01-28T10:38:21;30.10;;;18.30;;
34832;SDS011;55941;50.800;4.342;2023-01-28T10:40:50;31.27;;;19.17;;
34832;SDS011;55941;50.800;4.342;2023-01-28T10:43:20;22.92;;;16.90;;
34832;SDS011;55941;50.800;4.342;2023-01-28T10:46:05;22.90;;;17.70;;
34832;SDS011;55941;50.800;4.342;2023-01-28T10:48:47;27.52;;;17.95;;
34832;SDS011;55941;50.800;4.342;2023-01-28T10:51:18;19.40;;;14.23;;
34832;SDS011;55941;50.800;4.342;2023-01-28T10:54:03;24.17;;;17.80;;
34832;SDS011;55941;50.800;4.342;2023-01-28T10:56:46;24.85;;;17.83;;
34832;SDS011;55941;50.800;4.342;2023-01-28T10:59:28;30.58;;;17.85;;
34832;SDS011;55941;50.800;4.342;2023-01-28T11:01:57;21.88;;;17.63;;
34832;SDS011;55941;50.800;4.342;2023-01-28T11:04:31;24.60;;;18.80;;
34832;SDS011;55941;50.800;4.342;2023-01-28T11:07:00;28.23;;;18.55;;
34832;SDS011;55941;50.800;4.342;2023-01-28T11:09:32;23.10;;;17.80;;
34832;SDS011;55941;50.800;4.342;2023-01-28T11:12:20;22.20;;;18.25;;
34832;SDS011;55941;50.800;4.342;2023-01-28T11:14:56;27.83;;;18.08;;
34832;SDS011;55941;50.800;4.342;2023-01-28T11:17:28;27.58;;;16.98;;
34832;SDS011;55941;50.800;4.342;2023-01-28T11:19:58;24.02;;;16.73;;
34832;SDS011;55941;50.800;4.342;2023-01-28T11:22:35;26.67;;;17.70;;
34832;SDS011;55941;50.800;4.342;2023-01-28T11:25:05;24.90;;;17.08;;
34832;SDS011;55941;50.800;4.342;2023-01-28T11:27:46;33.15;;;17.58;;
34832;SDS011;55941;50.800;4.342;2023-01-28T11:30:23;25.75;;;16.70;;
34832;SDS011;55941;50.800;4.342;2023-01-28T11:32:56;29.45;;;17.02;;
34832;SDS011;55941;50.800;4.342;2023-01-28T11:35:29;24.73;;;16.35;;
34832;SDS011;55941;50.800;4.342;2023-01-28T11:37:59;22.15;;;16.13;;
34832;SDS011;55941;50.800;4.342;2023-01-28T11:40:25;18.77;;;15.60;;
34832;SDS011;55941;50.800;4.342;2023-01-28T11:42:52;19.00;;;15.27;;
34832;SDS011;55941;50.800;4.342;2023-01-28T11:45:31;24.73;;;15.90;;
34832;SDS011;55941;50.800;4.342;2023-01-28T11:54:05;32.38;;;16.50;;
34832;SDS011;55941;50.800;4.342;2023-01-28T12:02:18;21.85;;;16.55;;
34832;SDS011;55941;50.800;4.342;2023-01-28T12:18:42;28.05;;;16.55;;
34832;SDS011;55941;50.800;4.342;2023-01-28T12:21:35;30.73;;;16.90;;
34832;SDS011;55941;50.800;4.342;2023-01-28T12:27:01;23.65;;;15.52;;
34832;SDS011;55941;50.800;4.342;2023-01-28T12:29:44;20.10;;;15.90;;
34832;SDS011;55941;50.800;4.342;2023-01-28T12:32:42;21.77;;;15.00;;
34832;SDS011;55941;50.800;4.342;2023-01-28T12:35:30;23.73;;;15.05;;
34832;SDS011;55941;50.800;4.342;2023-01-28T12:40:47;19.75;;;16.23;;
34832;SDS011;55941;50.800;4.342;2023-01-28T12:43:24;26.55;;;16.70;;
34832;SDS011;55941;50.800;4.342;2023-01-28T12:45:56;21.48;;;15.23;;
34832;SDS011;55941;50.800;4.342;2023-01-28T12:53:48;19.38;;;13.55;;
34832;SDS011;55941;50.800;4.342;2023-01-28T12:56:30;15.43;;;12.88;;
34832;SDS011;55941;50.800;4.342;2023-01-28T12:59:07;24.20;;;13.35;;
34832;SDS011;55941;50.800;4.342;2023-01-28T13:10:39;17.20;;;13.45;;
34832;SDS011;55941;50.800;4.342;2023-01-28T13:13:29;23.58;;;12.88;;
34832;SDS011;55941;50.800;4.342;2023-01-28T13:15:56;18.55;;;12.02;;
34832;SDS011;55941;50.800;4.342;2023-01-28T13:18:31;17.23;;;12.15;;
34832;SDS011;55941;50.800;4.342;2023-01-28T13:21:04;18.40;;;13.50;;
34832;SDS011;55941;50.800;4.342;2023-01-28T13:23:41;14.35;;;12.48;;
34832;SDS011;55941;50.800;4.342;2023-01-28T13:28:47;16.10;;;12.25;;
34832;SDS011;55941;50.800;4.342;2023-01-28T13:31:16;19.27;;;12.75;;
34832;SDS011;55941;50.800;4.342;2023-01-28T13:33:48;13.82;;;12.32;;
34832;SDS011;55941;50.800;4.342;2023-01-28T13:36:36;19.20;;;12.85;;
34832;SDS011;55941;50.800;4.342;2023-01-28T13:41:46;18.65;;;13.52;;
34832;SDS011;55941;50.800;4.342;2023-01-28T13:44:33;14.18;;;12.68;;
34832;SDS011;55941;50.800;4.342;2023-01-28T13:52:11;15.57;;;12.88;;
34832;SDS011;55941;50.800;4.342;2023-01-28T13:54:42;16.15;;;12.77;;
34832;SDS011;55941;50.800;4.342;2023-01-28T14:18:42;28.02;;;14.73;;
34832;SDS011;55941;50.800;4.342;2023-01-28T14:21:11;20.65;;;14.07;;
34832;SDS011;55941;50.800;4.342;2023-01-28T14:23:43;17.50;;;14.00;;
34832;SDS011;55941;50.800;4.342;2023-01-28T14:26:33;19.13;;;14.35;;
34832;SDS011;55941;50.800;4.342;2023-01-28T14:32:04;19.08;;;14.60;;
34832;SDS011;55941;50.800;4.342;2023-01-28T14:34:35;19.85;;;14.63;;
34832;SDS011;55941;50.800;4.342;2023-01-28T14:37:03;21.42;;;15.35;;
34832;SDS011;55941;50.800;4.342;2023-01-28T14:39:40;20.17;;;15.00;;
34832;SDS011;55941;50.800;4.342;2023-01-28T14:42:14;21.42;;;15.90;;
34832;SDS011;55941;50.800;4.342;2023-01-28T14:44:46;24.17;;;15.75;;
34832;SDS011;55941;50.800;4.342;2023-01-28T14:53:16;21.10;;;16.00;;
34832;SDS011;55941;50.800;4.342;2023-01-28T14:58:24;19.85;;;15.05;;
34832;SDS011;55941;50.800;4.342;2023-01-28T15:00:58;20.67;;;16.30;;
34832;SDS011;55941;50.800;4.342;2023-01-28T15:03:26;22.23;;;16.27;;
34832;SDS011;55941;50.800;4.342;2023-01-28T15:06:06;20.52;;;15.77;;
34832;SDS011;55941;50.800;4.342;2023-01-28T15:08:38;22.33;;;15.88;;
34832;SDS011;55941;50.800;4.342;2023-01-28T15:11:05;21.88;;;15.90;;
34832;SDS011;55941;50.800;4.342;2023-01-28T15:13:36;19.17;;;15.57;;
34832;SDS011;55941;50.800;4.342;2023-01-28T15:16:05;20.73;;;16.13;;
34832;SDS011;55941;50.800;4.342;2023-01-28T15:18:37;31.80;;;17.27;;
34832;SDS011;55941;50.800;4.342;2023-01-28T15:21:06;20.10;;;16.27;;
34832;SDS011;55941;50.800;4.342;2023-01-28T15:26:05;23.75;;;15.70;;
34832;SDS011;55941;50.800;4.342;2023-01-28T15:28:36;26.58;;;17.02;;
34832;SDS011;55941;50.800;4.342;2023-01-28T15:31:03;40.88;;;17.17;;
34832;SDS011;55941;50.800;4.342;2023-01-28T15:33:30;23.48;;;17.05;;
34832;SDS011;55941;50.800;4.342;2023-01-28T15:35:56;22.00;;;16.35;;
34832;SDS011;55941;50.800;4.342;2023-01-28T15:38:25;22.13;;;15.90;;
34832;SDS011;55941;50.800;4.342;2023-01-28T15:40:59;21.80;;;16.00;;
34832;SDS011;55941;50.800;4.342;2023-01-28T15:43:35;22.75;;;16.55;;
34832;SDS011;55941;50.800;4.342;2023-01-28T15:46:02;23.38;;;16.58;;
34832;SDS011;55941;50.800;4.342;2023-01-28T15:48:34;20.88;;;16.20;;
34832;SDS011;55941;50.800;4.342;2023-01-28T15:51:05;25.98;;;17.48;;
34832;SDS011;55941;50.800;4.342;2023-01-28T15:53:35;22.35;;;15.52;;
34832;SDS011;55941;50.800;4.342;2023-01-28T15:56:13;21.08;;;16.33;;
34832;SDS011;55941;50.800;4.342;2023-01-28T15:58:40;21.00;;;16.30;;
34832;SDS011;55941;50.800;4.342;2023-01-28T16:03:32;22.40;;;16.15;;
34832;SDS011;55941;50.800;4.342;2023-01-28T16:08:52;21.63;;;16.40;;
34832;SDS011;55941;50.800;4.342;2023-01-28T16:11:31;26.40;;;17.00;;
34832;SDS011;55941;50.800;4.342;2023-01-28T16:14:30;22.48;;;16.63;;
34832;SDS011;55941;50.800;4.342;2023-01-28T16:17:08;23.48;;;17.38;;
34832;SDS011;55941;50.800;4.342;2023-01-28T16:22:17;21.10;;;16.10;;
34832;SDS011;55941;50.800;4.342;2023-01-28T16:24:57;21.80;;;17.08;;
34832;SDS011;55941;50.800;4.342;2023-01-28T16:27:24;26.08;;;18.08;;
34832;SDS011;55941;50.800;4.342;2023-01-28T16:29:55;28.27;;;18.58;;
34832;SDS011;55941;50.800;4.342;2023-01-28T16:32:29;29.60;;;18.38;;
34832;SDS011;55941;50.800;4.342;2023-01-28T16:34:58;25.30;;;18.55;;
34832;SDS011;55941;50.800;4.342;2023-01-28T16:37:24;25.20;;;18.17;;
34832;SDS011;55941;50.800;4.342;2023-01-28T16:39:51;32.13;;;19.83;;
34832;SDS011;55941;50.800;4.342;2023-01-28T16:42:17;34.10;;;19.65;;
34832;SDS011;55941;50.800;4.342;2023-01-28T16:44:49;31.27;;;19.17;;
34832;SDS011;55941;50.800;4.342;2023-01-28T16:47:15;33.42;;;20.13;;
34832;SDS011;55941;50.800;4.342;2023-01-28T16:49:41;26.95;;;19.92;;
34832;SDS011;55941;50.800;4.342;2023-01-28T16:52:08;30.83;;;21.45;;
34832;SDS011;55941;50.800;4.342;2023-01-28T16:54:36;31.17;;;21.45;;
34832;SDS011;55941;50.800;4.342;2023-01-28T16:57:03;45.67;;;22.25;;
34832;SDS011;55941;50.800;4.342;2023-01-28T16:59:29;31.48;;;21.40;;
34832;SDS011;55941;50.800;4.342;2023-01-28T17:01:55;30.90;;;21.70;;
34832;SDS011;55941;50.800;4.342;2023-01-28T17:04:21;29.42;;;21.35;;
34832;SDS011;55941;50.800;4.342;2023-01-28T17:06:46;27.58;;;21.50;;
34832;SDS011;55941;50.800;4.342;2023-01-28T17:09:13;29.17;;;22.35;;
34832;SDS011;55941;50.800;4.342;2023-01-28T17:11:39;34.00;;;21.92;;
34832;SDS011;55941;50.800;4.342;2023-01-28T17:14:05;32.83;;;23.95;;
34832;SDS011;55941;50.800;4.342;2023-01-28T17:16:32;32.28;;;21.75;;
34832;SDS011;55941;50.800;4.342;2023-01-28T17:18:58;32.08;;;23.10;;
34832;SDS011;55941;50.800;4.342;2023-01-28T17:21:24;31.08;;;22.20;;
34832;SDS011;55941;50.800;4.342;2023-01-28T17:23:50;30.65;;;21.45;;
34832;SDS011;55941;50.800;4.342;2023-01-28T17:26:15;33.67;;;22.00;;